createdAt,value
2017-02-03T00:00:23.516Z,85.89
2017-02-03T00:01:33.355Z,85.7
2017-02-03T00:02:43.256Z,85.7
2017-02-03T00:03:53.523Z,85.8
2017-02-03T00:05:03.205Z,85.8
2017-02-03T00:06:13.505Z,85.8
2017-02-03T00:07:23.340Z,85.61
2017-02-03T00:08:33.667Z,85.61
2017-02-03T00:09:43.523Z,85.61
2017-02-03T00:10:54.062Z,85.8
2017-02-03T00:12:03.940Z,85.99
2017-02-03T00:13:14.193Z,86.27
2017-02-03T00:14:24.474Z,86.08
2017-02-03T00:15:34.820Z,85.8
2017-02-03T00:16:44.921Z,85.89
2017-02-03T00:17:54.526Z,86.27
2017-02-03T00:19:04.853Z,86.27
2017-02-03T00:20:14.696Z,85.7
2017-02-03T00:21:24.598Z,85.7
2017-02-03T00:22:34.764Z,85.8
2017-02-03T00:23:44.609Z,85.8
2017-02-03T00:24:54.887Z,85.7
2017-02-03T00:26:04.352Z,85.7
2017-02-03T00:27:14.203Z,85.8
2017-02-03T00:28:23.984Z,85.8
2017-02-03T00:29:33.838Z,85.7
2017-02-03T00:30:44.140Z,85.89
2017-02-03T00:31:54.418Z,85.89
2017-02-03T00:33:03.851Z,85.7
2017-02-03T00:34:14.405Z,85.89
2017-02-03T00:35:24.694Z,85.7
2017-02-03T00:36:35.009Z,86.08
2017-02-03T00:37:44.874Z,86.18
2017-02-03T00:38:54.320Z,86.27
2017-02-03T00:40:04.007Z,86.18
2017-02-03T00:41:13.556Z,86.46
2017-02-03T00:42:23.795Z,86.27
2017-02-03T00:43:34.027Z,85.89
2017-02-03T00:44:44.323Z,85.99
2017-02-03T00:45:54.013Z,85.8
2017-02-03T00:47:03.941Z,85.8
2017-02-03T00:48:14.300Z,85.89
2017-02-03T00:49:24.126Z,86.27
2017-02-03T00:50:34.438Z,85.99
2017-02-03T00:51:44.991Z,86.27
2017-02-03T00:52:55.363Z,86.03
2017-02-03T00:54:05.621Z,86.12
2017-02-03T00:55:15.917Z,86.12
2017-02-03T00:56:25.863Z,86.18
2017-02-03T00:57:36.033Z,86.12
2017-02-03T00:58:46.282Z,86.27
2017-02-03T00:59:56.562Z,86.27
2017-02-03T01:01:06.439Z,85.8
2017-02-03T01:02:16.300Z,85.99
2017-02-03T01:03:26.383Z,86.36
2017-02-03T01:04:36.691Z,86.36
2017-02-03T01:05:47.024Z,85.99
2017-02-03T01:06:57.284Z,86.08
2017-02-03T01:08:07.279Z,86.36
2017-02-03T01:09:17.443Z,86.46
2017-02-03T01:10:27.289Z,86.36
2017-02-03T01:11:37.122Z,86.08
2017-02-03T01:12:47.422Z,86.18
2017-02-03T01:13:58.657Z,86.46
2017-02-03T01:15:09.200Z,86.27
2017-02-03T01:16:19.119Z,86.46
2017-02-03T01:17:29.365Z,86.36
2017-02-03T01:18:39.199Z,86.36
2017-02-03T01:19:49.067Z,86.18
2017-02-03T01:20:59.160Z,86.36
2017-02-03T01:22:08.595Z,86.46
2017-02-03T01:23:18.489Z,86.36
2017-02-03T01:24:28.767Z,86.46
2017-02-03T01:25:39.065Z,86.12
2017-02-03T01:26:48.805Z,86.18
2017-02-03T01:27:58.686Z,86.36
2017-02-03T01:29:08.959Z,86.27
2017-02-03T01:30:18.789Z,86.08
2017-02-03T01:31:28.629Z,86.18
2017-02-03T01:32:39.119Z,86.46
2017-02-03T01:33:49.004Z,86.36
2017-02-03T01:34:59.580Z,86.46
2017-02-03T01:36:09.025Z,86.74
2017-02-03T01:37:19.279Z,86.93
2017-02-03T01:38:29.765Z,86.93
2017-02-03T01:39:39.999Z,87.02
2017-02-03T01:40:49.861Z,86.55
2017-02-03T01:41:59.714Z,86.74
2017-02-03T01:43:09.572Z,86.83
2017-02-03T01:44:19.682Z,86.83
2017-02-03T01:45:30.014Z,86.93
2017-02-03T01:46:40.261Z,86.74
2017-02-03T01:47:50.506Z,86.74
2017-02-03T01:49:00.362Z,86.93
2017-02-03T01:50:10.871Z,86.65
2017-02-03T01:51:21.184Z,86.83
2017-02-03T01:52:31.457Z,86.74
2017-02-03T01:53:41.327Z,86.5
2017-02-03T01:54:51.193Z,86.83
2017-02-03T01:56:01.782Z,86.83
2017-02-03T01:57:11.659Z,86.83
2017-02-03T01:58:21.107Z,86.46
2017-02-03T01:59:31.480Z,86.83
2017-02-03T02:00:41.390Z,87.12
2017-02-03T02:01:51.932Z,86.55
2017-02-03T02:03:02.197Z,86.74
2017-02-03T02:04:12.443Z,86.83
2017-02-03T02:05:21.923Z,86.83
2017-02-03T02:06:32.291Z,86.74
2017-02-03T02:07:41.989Z,86.74
2017-02-03T02:08:52.233Z,86.65
2017-02-03T02:10:02.091Z,86.83
2017-02-03T02:11:11.577Z,86.93
2017-02-03T02:12:21.414Z,87.21
2017-02-03T02:13:31.928Z,87.02
2017-02-03T02:14:41.767Z,87.12
2017-02-03T02:15:52.011Z,87.31
2017-02-03T02:17:02.333Z,87.31
2017-02-03T02:18:12.608Z,87.12
2017-02-03T02:19:23.105Z,87.21
2017-02-03T02:20:32.990Z,86.93
2017-02-03T02:21:43.232Z,86.83
2017-02-03T02:22:53.489Z,87.02
2017-02-03T02:24:03.776Z,86.93
2017-02-03T02:25:13.882Z,86.83
2017-02-03T02:26:23.745Z,86.98
2017-02-03T02:27:33.983Z,86.98
2017-02-03T02:28:44.283Z,86.88
2017-02-03T02:29:54.717Z,87.02
2017-02-03T02:31:04.395Z,87.02
2017-02-03T02:32:14.691Z,86.69
2017-02-03T02:33:24.937Z,87.02
2017-02-03T02:34:35.230Z,86.83
2017-02-03T02:35:44.670Z,86.88
2017-02-03T02:36:54.844Z,86.88
2017-02-03T02:38:04.694Z,87.07
2017-02-03T02:39:14.961Z,87.26
2017-02-03T02:40:24.807Z,87.16
2017-02-03T02:41:34.241Z,86.69
2017-02-03T02:42:44.749Z,86.79
2017-02-03T02:43:54.640Z,87.26
2017-02-03T02:45:04.487Z,87.07
2017-02-03T02:46:14.366Z,87.16
2017-02-03T02:47:24.615Z,86.88
2017-02-03T02:48:34.735Z,87.02
2017-02-03T02:49:44.651Z,87.21
2017-02-03T02:50:55.057Z,87.07
2017-02-03T02:52:04.922Z,87.26
2017-02-03T02:53:15.162Z,87.07
2017-02-03T02:54:25.665Z,87.16
2017-02-03T02:55:35.927Z,87.07
2017-02-03T02:56:46.174Z,87.26
2017-02-03T02:57:55.623Z,86.69
2017-02-03T02:59:05.528Z,86.79
2017-02-03T03:00:16.032Z,86.98
2017-02-03T03:01:26.276Z,87.07
2017-02-03T03:02:36.555Z,86.69
2017-02-03T03:03:46.790Z,87.07
2017-02-03T03:04:56.745Z,87.07
2017-02-03T03:06:07.260Z,86.79
2017-02-03T03:07:17.144Z,86.79
2017-02-03T03:08:27.417Z,87.21
2017-02-03T03:09:37.663Z,87.02
2017-02-03T03:10:48.034Z,87.02
2017-02-03T03:11:57.800Z,87.02
2017-02-03T03:13:07.731Z,86.83
2017-02-03T03:14:17.197Z,87.12
2017-02-03T03:15:27.436Z,86.93
2017-02-03T03:16:37.758Z,87.12
2017-02-03T03:17:48.252Z,87.31
2017-02-03T03:18:58.108Z,87.12
2017-02-03T03:20:08.632Z,87.5
2017-02-03T03:21:18.467Z,86.93
2017-02-03T03:22:28.312Z,87.21
2017-02-03T03:23:38.578Z,87.21
2017-02-03T03:24:49.006Z,87.59
2017-02-03T03:25:58.851Z,87.5
2017-02-03T03:27:08.699Z,87.69
2017-02-03T03:28:18.958Z,87.59
2017-02-03T03:29:28.667Z,87.5
2017-02-03T03:30:38.989Z,87.31
2017-02-03T03:31:48.565Z,87.69
2017-02-03T03:32:58.825Z,87.5
2017-02-03T03:34:09.066Z,87.5
2017-02-03T03:35:19.298Z,87.5
2017-02-03T03:36:29.162Z,87.4
2017-02-03T03:37:39.464Z,87.5
2017-02-03T03:38:49.753Z,87.5
2017-02-03T03:39:59.760Z,87.4
2017-02-03T03:41:09.853Z,87.21
2017-02-03T03:42:19.775Z,87.5
2017-02-03T03:43:29.647Z,87.4
2017-02-03T03:44:39.484Z,87.4
2017-02-03T03:45:49.769Z,87.31
2017-02-03T03:46:59.485Z,87.31
2017-02-03T03:48:09.768Z,87.21
2017-02-03T03:49:20.008Z,87.12
2017-02-03T03:50:30.247Z,87.21
2017-02-03T03:51:40.085Z,87.69
2017-02-03T03:52:50.590Z,87.78
2017-02-03T03:54:00.536Z,87.21
2017-02-03T03:55:09.970Z,87.59
2017-02-03T03:56:19.933Z,87.31
2017-02-03T03:57:30.308Z,88.26
2017-02-03T03:58:40.799Z,88.07
2017-02-03T03:59:50.269Z,88.17
2017-02-03T04:01:00.149Z,87.88
2017-02-03T04:02:10.405Z,88.07
2017-02-03T04:03:20.308Z,87.78
2017-02-03T04:04:30.800Z,88.07
2017-02-03T04:05:41.077Z,88.07
2017-02-03T04:06:50.985Z,87.88
2017-02-03T04:08:01.307Z,87.88
2017-02-03T04:09:11.542Z,87.98
2017-02-03T04:10:22.067Z,87.98
2017-02-03T04:11:32.330Z,87.98
2017-02-03T04:12:42.159Z,87.78
2017-02-03T04:13:52.031Z,88.17
2017-02-03T04:15:01.957Z,87.88
2017-02-03T04:16:12.448Z,87.98
2017-02-03T04:17:22.813Z,88.07
2017-02-03T04:18:32.665Z,87.98
2017-02-03T04:19:42.108Z,88.07
2017-02-03T04:20:52.359Z,87.98
2017-02-03T04:22:02.909Z,87.69
2017-02-03T04:23:13.264Z,88.07
2017-02-03T04:24:23.101Z,88.26
2017-02-03T04:25:33.345Z,88.17
2017-02-03T04:26:43.663Z,88.26
2017-02-03T04:27:53.845Z,88.17
2017-02-03T04:29:03.710Z,88.17
2017-02-03T04:30:13.956Z,88.35
2017-02-03T04:31:24.223Z,88.17
2017-02-03T04:32:34.578Z,88.26
2017-02-03T04:33:45.069Z,88.17
2017-02-03T04:34:54.553Z,88.17
2017-02-03T04:36:04.789Z,88.17
2017-02-03T04:37:15.057Z,87.98
2017-02-03T04:38:25.311Z,88.07
2017-02-03T04:39:35.064Z,88.54
2017-02-03T04:40:44.505Z,88.64
2017-02-03T04:41:54.349Z,88.45
2017-02-03T04:43:04.596Z,87.98
2017-02-03T04:44:14.473Z,87.98
2017-02-03T04:45:24.565Z,88.07
2017-02-03T04:46:34.440Z,88.17
2017-02-03T04:47:44.289Z,88.07
2017-02-03T04:48:54.174Z,87.98
2017-02-03T04:50:04.433Z,88.17
2017-02-03T04:51:14.527Z,88.17
2017-02-03T04:52:24.770Z,88.07
2017-02-03T04:53:35.010Z,88.07
2017-02-03T04:54:44.838Z,88.07
2017-02-03T04:55:54.664Z,87.98
2017-02-03T04:57:05.173Z,87.98
2017-02-03T04:58:15.518Z,87.98
2017-02-03T04:59:25.478Z,87.98
2017-02-03T05:00:35.783Z,87.98
2017-02-03T05:01:45.620Z,88.07
2017-02-03T05:02:56.239Z,87.98
2017-02-03T05:04:06.522Z,88.17
2017-02-03T05:05:16.771Z,88.07
2017-02-03T05:06:26.675Z,88.17
2017-02-03T05:07:37.017Z,88.07
2017-02-03T05:08:47.277Z,88.17
2017-02-03T05:09:57.211Z,87.59
2017-02-03T05:11:06.241Z,87.98
2017-02-03T05:12:16.475Z,88.07
2017-02-03T05:13:26.323Z,88.17
2017-02-03T05:14:35.998Z,88.07
2017-02-03T05:15:45.876Z,87.98
2017-02-03T05:16:56.137Z,88.07
2017-02-03T05:18:06.374Z,87.88
2017-02-03T05:19:16.634Z,88.07
2017-02-03T05:20:27.252Z,88.07
2017-02-03T05:21:37.497Z,88.07
2017-02-03T05:22:47.799Z,88.17
2017-02-03T05:23:57.646Z,88.17
2017-02-03T05:25:07.930Z,88.07
2017-02-03T05:26:18.144Z,88.17
2017-02-03T05:27:28.448Z,87.98
2017-02-03T05:28:38.273Z,88.17
2017-02-03T05:29:48.536Z,88.07
2017-02-03T05:30:58.772Z,88.35
2017-02-03T05:32:08.454Z,88.07
2017-02-03T05:33:18.716Z,88.64
2017-02-03T05:34:28.961Z,88.45
2017-02-03T05:35:39.215Z,88.64
2017-02-03T05:36:49.580Z,88.54
2017-02-03T05:37:59.804Z,88.26
2017-02-03T05:39:10.068Z,88.45
2017-02-03T05:40:20.402Z,88.17
2017-02-03T05:41:30.692Z,88.35
2017-02-03T05:42:40.567Z,88.64
2017-02-03T05:43:51.339Z,88.64
2017-02-03T05:45:01.175Z,88.64
2017-02-03T05:46:11.016Z,88.26
2017-02-03T05:47:21.307Z,88.45
2017-02-03T05:48:31.626Z,88.68
2017-02-03T05:49:41.724Z,88.82
2017-02-03T05:50:51.573Z,88.64
2017-02-03T05:52:01.007Z,88.64
2017-02-03T05:53:10.873Z,88.02
2017-02-03T05:54:21.114Z,88.07
2017-02-03T05:55:31.612Z,88.35
2017-02-03T05:56:41.851Z,87.98
2017-02-03T05:57:51.701Z,87.92
2017-02-03T05:59:01.566Z,88.17
2017-02-03T06:00:11.079Z,87.98
2017-02-03T06:01:21.571Z,88.02
2017-02-03T06:02:31.834Z,88.02
2017-02-03T06:03:42.143Z,88.26
2017-02-03T06:04:51.989Z,87.83
2017-02-03T06:06:02.248Z,87.92
2017-02-03T06:07:12.444Z,88.3
2017-02-03T06:08:22.742Z,87.92
2017-02-03T06:09:33.232Z,88.11
2017-02-03T06:10:43.061Z,88.02
2017-02-03T06:11:53.309Z,88.02
2017-02-03T06:13:03.437Z,87.98
2017-02-03T06:14:12.905Z,88.17
2017-02-03T06:15:22.791Z,88.02
2017-02-03T06:16:33.031Z,88.21
2017-02-03T06:17:42.875Z,88.02
2017-02-03T06:18:52.201Z,88.02
2017-02-03T06:20:02.546Z,88.02
2017-02-03T06:21:12.393Z,87.83
2017-02-03T06:22:22.229Z,88.11
2017-02-03T06:23:32.532Z,88.11
2017-02-03T06:24:43.041Z,88.11
2017-02-03T06:25:52.510Z,88.21
2017-02-03T06:27:02.757Z,88.02
2017-02-03T06:28:13.108Z,88.07
2017-02-03T06:29:22.952Z,88.64
2017-02-03T06:30:33.519Z,88.4
2017-02-03T06:31:43.787Z,88.49
2017-02-03T06:32:53.621Z,88.4
2017-02-03T06:34:03.957Z,88.49
2017-02-03T06:35:13.816Z,88.3
2017-02-03T06:36:24.312Z,88.49
2017-02-03T06:37:34.322Z,88.49
2017-02-03T06:38:44.154Z,88.49
2017-02-03T06:39:54.403Z,88.59
2017-02-03T06:41:04.657Z,88.59
2017-02-03T06:42:14.821Z,88.68
2017-02-03T06:43:25.124Z,88.68
2017-02-03T06:44:35.003Z,88.68
2017-02-03T06:45:45.266Z,88.49
2017-02-03T06:46:55.516Z,88.4
2017-02-03T06:48:05.607Z,88.4
2017-02-03T06:49:15.069Z,88.4
2017-02-03T06:50:24.922Z,88.68
2017-02-03T06:51:34.745Z,88.68
2017-02-03T06:52:44.610Z,88.4
2017-02-03T06:53:55.103Z,88.4
2017-02-03T06:55:05.339Z,88.59
2017-02-03T06:56:15.575Z,88.4
2017-02-03T06:57:25.586Z,88.4
2017-02-03T06:58:35.450Z,88.78
2017-02-03T06:59:46.002Z,88.96
2017-02-03T07:00:55.928Z,88.4
2017-02-03T07:02:06.213Z,89.06
2017-02-03T07:03:16.139Z,89.06
2017-02-03T07:04:26.426Z,89.15
2017-02-03T07:05:36.580Z,89.06
2017-02-03T07:06:46.145Z,88.3
2017-02-03T07:07:56.016Z,88.3
2017-02-03T07:09:06.260Z,88.21
2017-02-03T07:10:16.493Z,88.3
2017-02-03T07:11:26.227Z,88.4
2017-02-03T07:12:36.484Z,88.4
2017-02-03T07:13:46.741Z,88.4
2017-02-03T07:14:56.988Z,88.49
2017-02-03T07:16:07.281Z,88.59
2017-02-03T07:17:17.035Z,88.49
2017-02-03T07:18:27.291Z,88.68
2017-02-03T07:19:36.730Z,88.49
2017-02-03T07:20:46.963Z,88.49
2017-02-03T07:21:57.251Z,88.68
2017-02-03T07:23:07.367Z,88.59
2017-02-03T07:24:17.358Z,88.68
2017-02-03T07:25:27.198Z,88.68
2017-02-03T07:26:37.436Z,88.68
2017-02-03T07:27:47.705Z,88.49
2017-02-03T07:28:58.206Z,88.78
2017-02-03T07:30:08.524Z,88.49
2017-02-03T07:31:18.768Z,88.49
2017-02-03T07:32:28.613Z,88.4
2017-02-03T07:33:38.460Z,88.4
2017-02-03T07:34:49.314Z,88.4
2017-02-03T07:35:59.189Z,88.4
2017-02-03T07:37:09.433Z,88.49
2017-02-03T07:38:18.465Z,88.4
2017-02-03T07:39:28.026Z,88.49
2017-02-03T07:40:38.123Z,88.4
2017-02-03T07:41:48.385Z,88.59
2017-02-03T07:42:57.421Z,88.21
2017-02-03T07:44:07.266Z,88.59
2017-02-03T07:45:17.553Z,88.11
2017-02-03T07:46:27.678Z,88.68
2017-02-03T07:47:37.979Z,88.3
2017-02-03T07:48:48.259Z,88.21
2017-02-03T07:49:58.155Z,88.73
2017-02-03T07:51:08.015Z,88.4
2017-02-03T07:52:18.134Z,88.49
2017-02-03T07:53:28.435Z,88.4
2017-02-03T07:54:37.883Z,88.4
2017-02-03T07:55:47.316Z,88.44
2017-02-03T07:56:57.574Z,88.68
2017-02-03T07:58:07.312Z,88.63
2017-02-03T07:59:17.645Z,88.73
2017-02-03T08:00:27.082Z,88.73
2017-02-03T08:01:37.386Z,88.44
2017-02-03T08:02:47.671Z,88.06
2017-02-03T08:03:57.758Z,88.25
2017-02-03T08:05:08.011Z,88.16
2017-02-03T08:06:17.840Z,88.16
2017-02-03T08:07:27.676Z,87.77
2017-02-03T08:08:37.579Z,87.87
2017-02-03T08:09:47.294Z,88.06
2017-02-03T08:10:57.587Z,87.3
2017-02-03T08:12:07.029Z,87.68
2017-02-03T08:13:17.384Z,87.3
2017-02-03T08:14:27.676Z,87.49
2017-02-03T08:15:38.198Z,87.73
2017-02-03T08:16:48.469Z,87.49
2017-02-03T08:17:58.485Z,87.45
2017-02-03T08:19:08.774Z,87.12
2017-02-03T08:20:19.067Z,87.25
2017-02-03T08:21:29.612Z,86.93
2017-02-03T08:22:39.912Z,87.06
2017-02-03T08:23:50.147Z,87.16
2017-02-03T08:25:00.021Z,87.02
2017-02-03T08:26:10.247Z,87.21
2017-02-03T08:27:20.047Z,86.83
2017-02-03T08:28:29.909Z,87.16
2017-02-03T08:29:39.847Z,86.97
2017-02-03T08:30:49.761Z,87.16
2017-02-03T08:31:59.636Z,87.16
2017-02-03T08:33:09.771Z,86.83
2017-02-03T08:34:19.712Z,86.83
2017-02-03T08:35:30.062Z,86.78
2017-02-03T08:36:40.344Z,86.78
2017-02-03T08:37:50.232Z,86.87
2017-02-03T08:39:00.749Z,87.06
2017-02-03T08:40:10.591Z,87.16
2017-02-03T08:41:20.435Z,86.59
2017-02-03T08:42:30.303Z,86.78
2017-02-03T08:43:40.581Z,87.16
2017-02-03T08:44:50.675Z,86.59
2017-02-03T08:46:01.057Z,86.59
2017-02-03T08:47:11.305Z,86.49
2017-02-03T08:48:21.585Z,86.59
2017-02-03T08:49:31.560Z,86.49
2017-02-03T08:50:41.663Z,86.87
2017-02-03T08:51:51.558Z,86.59
2017-02-03T08:53:01.862Z,86.59
2017-02-03T08:54:12.105Z,86.3
2017-02-03T08:55:22.352Z,86.49
2017-02-03T08:56:32.506Z,86.21
2017-02-03T08:57:42.759Z,86.3
2017-02-03T08:58:53.003Z,86.3
2017-02-03T09:00:03.261Z,86.59
2017-02-03T09:01:13.537Z,86.21
2017-02-03T09:02:24.129Z,86.4
2017-02-03T09:03:33.609Z,86.4
2017-02-03T09:04:43.482Z,86.11
2017-02-03T09:05:53.874Z,85.93
2017-02-03T09:07:04.147Z,86.11
2017-02-03T09:08:14.720Z,86.02
2017-02-03T09:09:25.011Z,86.11
2017-02-03T09:10:35.260Z,86.11
2017-02-03T09:11:45.136Z,85.93
2017-02-03T09:12:55.403Z,86.21
2017-02-03T09:14:05.974Z,86.11
2017-02-03T09:15:16.230Z,86.21
2017-02-03T09:16:26.507Z,86.21
2017-02-03T09:17:36.872Z,86.11
2017-02-03T09:18:47.227Z,86.21
2017-02-03T09:19:57.716Z,86.21
2017-02-03T09:21:07.606Z,86.4
2017-02-03T09:22:17.845Z,85.83
2017-02-03T09:23:27.740Z,85.93
2017-02-03T09:24:37.985Z,85.97
2017-02-03T09:25:48.514Z,85.78
2017-02-03T09:26:58.401Z,85.68
2017-02-03T09:28:08.400Z,85.59
2017-02-03T09:29:18.660Z,85.4
2017-02-03T09:30:28.926Z,85.21
2017-02-03T09:31:39.083Z,85.3
2017-02-03T09:32:48.571Z,85.11
2017-02-03T09:33:58.556Z,85.49
2017-02-03T09:35:08.871Z,85.02
2017-02-03T09:36:19.299Z,85.02
2017-02-03T09:37:29.853Z,85.11
2017-02-03T09:38:39.376Z,84.74
2017-02-03T09:39:49.311Z,84.64
2017-02-03T09:40:59.680Z,84.64
2017-02-03T09:42:09.972Z,84.45
2017-02-03T09:43:20.535Z,84.92
2017-02-03T09:44:30.084Z,84.78
2017-02-03T09:45:40.043Z,84.49
2017-02-03T09:46:50.327Z,84.59
2017-02-03T09:47:59.784Z,84.21
2017-02-03T09:49:09.599Z,84.49
2017-02-03T09:50:19.495Z,83.92
2017-02-03T09:51:29.748Z,84.4
2017-02-03T09:52:39.607Z,83.54
2017-02-03T09:53:49.504Z,83.78
2017-02-03T09:55:00.195Z,83.39
2017-02-03T09:56:10.044Z,83.01
2017-02-03T09:57:20.315Z,82.73
2017-02-03T09:58:30.602Z,82.49
2017-02-03T09:59:40.460Z,82.49
2017-02-03T10:00:51.006Z,81.92
2017-02-03T10:02:00.558Z,81.29
2017-02-03T10:03:10.009Z,81.2
2017-02-03T10:04:20.321Z,81.29
2017-02-03T10:05:30.568Z,80.66
2017-02-03T10:06:40.752Z,80.19
2017-02-03T10:07:51.087Z,79.81
2017-02-03T10:09:01.409Z,79.33
2017-02-03T10:10:10.889Z,79.05
2017-02-03T10:11:20.780Z,79.14
2017-02-03T10:12:31.424Z,78.67
2017-02-03T10:13:41.742Z,77.95
2017-02-03T10:14:52.017Z,77.66
2017-02-03T10:16:02.294Z,77.66
2017-02-03T10:17:12.207Z,76.86
2017-02-03T10:18:23.029Z,76.76
2017-02-03T10:19:33.335Z,76.96
2017-02-03T10:20:43.602Z,77
2017-02-03T10:21:53.105Z,76.61
2017-02-03T10:23:03.355Z,76.33
2017-02-03T10:24:13.534Z,76.52
2017-02-03T10:25:23.420Z,75.95
2017-02-03T10:26:33.308Z,75.81
2017-02-03T10:27:43.214Z,75.72
2017-02-03T10:28:53.472Z,75.53
2017-02-03T10:30:04.091Z,76.1
2017-02-03T10:31:13.969Z,76.1
2017-02-03T10:32:24.322Z,76.01
2017-02-03T10:33:34.602Z,75.62
2017-02-03T10:34:44.851Z,75.91
2017-02-03T10:35:55.010Z,75.87
2017-02-03T10:37:05.335Z,75.59
2017-02-03T10:38:15.644Z,75.96
2017-02-03T10:39:25.940Z,76.16
2017-02-03T10:40:35.818Z,76.03
2017-02-03T10:41:45.990Z,76.12
2017-02-03T10:42:56.261Z,76.4
2017-02-03T10:44:06.647Z,76.88
2017-02-03T10:45:16.535Z,76.5
2017-02-03T10:46:26.809Z,76.88
2017-02-03T10:47:36.605Z,77.31
2017-02-03T10:48:46.991Z,77.22
2017-02-03T10:49:56.886Z,77.22
2017-02-03T10:51:06.041Z,77.12
2017-02-03T10:52:15.495Z,77.89
2017-02-03T10:53:26.102Z,77.6
2017-02-03T10:54:36.424Z,77.89
2017-02-03T10:55:46.776Z,77.98
2017-02-03T10:56:56.688Z,78.17
2017-02-03T10:58:07.006Z,78.36
2017-02-03T10:59:17.571Z,77.89
2017-02-03T11:00:27.425Z,78.17
2017-02-03T11:01:37.354Z,78.17
2017-02-03T11:02:47.297Z,78.08
2017-02-03T11:03:57.183Z,78.08
2017-02-03T11:05:07.347Z,78.36
2017-02-03T11:06:17.245Z,78.17
2017-02-03T11:07:27.591Z,78.74
2017-02-03T11:08:37.842Z,78.64
2017-02-03T11:09:47.316Z,78.27
2017-02-03T11:10:57.914Z,78.36
2017-02-03T11:12:08.244Z,78.17
2017-02-03T11:13:18.513Z,78.74
2017-02-03T11:14:28.790Z,78.64
2017-02-03T11:15:38.283Z,79.03
2017-02-03T11:16:48.867Z,78.55
2017-02-03T11:17:59.180Z,78.93
2017-02-03T11:19:09.434Z,78.83
2017-02-03T11:20:19.434Z,78.93
2017-02-03T11:21:29.734Z,79.12
2017-02-03T11:22:40.325Z,79.12
2017-02-03T11:23:50.576Z,79.03
2017-02-03T11:25:00.865Z,79.22
2017-02-03T11:26:11.129Z,79.22
2017-02-03T11:27:21.387Z,79.12
2017-02-03T11:28:31.974Z,79.41
2017-02-03T11:29:41.574Z,79.41
2017-02-03T11:30:51.440Z,79.12
2017-02-03T11:32:01.290Z,79.22
2017-02-03T11:33:11.721Z,79.41
2017-02-03T11:34:22.295Z,79.31
2017-02-03T11:35:32.544Z,79.41
2017-02-03T11:36:42.424Z,79.41
2017-02-03T11:37:52.737Z,79.41
2017-02-03T11:39:02.925Z,79.22
2017-02-03T11:40:13.516Z,79.41
2017-02-03T11:41:22.963Z,79.22
2017-02-03T11:42:33.279Z,79.41
2017-02-03T11:43:42.744Z,79.03
2017-02-03T11:44:52.604Z,79.31
2017-02-03T11:46:02.400Z,79.41
2017-02-03T11:47:12.251Z,79.22
2017-02-03T11:48:22.114Z,79.22
2017-02-03T11:49:31.965Z,79.5
2017-02-03T11:50:41.815Z,79.31
2017-02-03T11:51:51.710Z,79.5
2017-02-03T11:53:01.968Z,80.07
2017-02-03T11:54:12.229Z,80.07
2017-02-03T11:55:21.696Z,79.97
2017-02-03T11:56:32.054Z,80.07
2017-02-03T11:57:42.257Z,79.88
2017-02-03T11:58:52.514Z,80.07
2017-02-03T12:00:02.794Z,79.88
2017-02-03T12:01:13.102Z,79.97
2017-02-03T12:02:22.980Z,79.79
2017-02-03T12:03:33.657Z,80.07
2017-02-03T12:04:43.536Z,80.07
2017-02-03T12:05:53.834Z,79.79
2017-02-03T12:07:04.074Z,79.88
2017-02-03T12:08:14.358Z,80.16
2017-02-03T12:09:24.563Z,79.79
2017-02-03T12:10:34.964Z,80.07
2017-02-03T12:11:45.203Z,80.07
2017-02-03T12:12:55.452Z,80.07
2017-02-03T12:14:05.715Z,80.07
2017-02-03T12:15:15.880Z,80.35
2017-02-03T12:16:26.139Z,80.26
2017-02-03T12:17:35.176Z,80.35
2017-02-03T12:18:45.420Z,80.35
2017-02-03T12:19:55.328Z,79.97
2017-02-03T12:21:05.890Z,80.26
2017-02-03T12:22:15.347Z,80.35
2017-02-03T12:23:25.219Z,79.97
2017-02-03T12:24:35.500Z,80.26
2017-02-03T12:25:45.762Z,80.93
2017-02-03T12:26:56.429Z,80.07
2017-02-03T12:28:06.694Z,80.83
2017-02-03T12:29:17.026Z,80.26
2017-02-03T12:30:26.855Z,80.16
2017-02-03T12:31:37.157Z,79.97
2017-02-03T12:32:47.711Z,80.16
2017-02-03T12:33:57.722Z,80.74
2017-02-03T12:35:07.571Z,80.16
2017-02-03T12:36:17.846Z,80.83
2017-02-03T12:37:27.697Z,80.64
2017-02-03T12:38:37.966Z,80.83
2017-02-03T12:39:48.231Z,80.55
2017-02-03T12:40:58.082Z,80.55
2017-02-03T12:42:08.385Z,80.55
2017-02-03T12:43:18.741Z,80.64
2017-02-03T12:44:29.414Z,80.74
2017-02-03T12:45:39.703Z,80.83
2017-02-03T12:46:49.941Z,80.74
2017-02-03T12:47:59.859Z,80.64
2017-02-03T12:49:09.699Z,80.64
2017-02-03T12:50:52.121Z,81.02
2017-02-03T12:52:02.387Z,80.83
2017-02-03T12:53:12.237Z,81.02
2017-02-03T12:54:22.631Z,81.21
2017-02-03T12:55:33.200Z,80.83
2017-02-03T12:56:43.516Z,80.93
2017-02-03T12:57:53.839Z,81.21
2017-02-03T12:59:03.273Z,81.02
2017-02-03T13:00:13.513Z,80.93
2017-02-03T13:01:23.687Z,80.55
2017-02-03T13:02:33.548Z,80.55
2017-02-03T13:03:43.403Z,80.45
2017-02-03T13:04:53.683Z,81.3
2017-02-03T13:06:03.530Z,80.64
2017-02-03T13:07:13.726Z,80.74
2017-02-03T13:08:24.032Z,81.02
2017-02-03T13:09:34.311Z,81.02
2017-02-03T13:10:44.569Z,81.02
2017-02-03T13:11:54.434Z,80.93
2017-02-03T13:13:04.591Z,81.12
2017-02-03T13:14:14.953Z,81.12
2017-02-03T13:15:24.806Z,81.3
2017-02-03T13:16:35.062Z,81.49
2017-02-03T13:17:45.332Z,81.12
2017-02-03T13:18:55.470Z,81.59
2017-02-03T13:20:05.329Z,81.49
2017-02-03T13:21:15.633Z,81.87
2017-02-03T13:22:25.578Z,81.49
2017-02-03T13:23:35.858Z,82.16
2017-02-03T13:24:46.396Z,82.07
2017-02-03T13:25:56.318Z,82.07
2017-02-03T13:27:06.226Z,82.82
2017-02-03T13:28:16.561Z,82.73
2017-02-03T13:29:26.819Z,82.45
2017-02-03T13:30:36.571Z,83.11
2017-02-03T13:31:46.894Z,82.54
2017-02-03T13:32:56.443Z,82.82
2017-02-03T13:34:06.678Z,83.11
2017-02-03T13:35:16.927Z,82.92
2017-02-03T13:36:27.548Z,83.11
2017-02-03T13:37:37.437Z,83.49
2017-02-03T13:38:47.683Z,83.3
2017-02-03T13:39:57.125Z,83.49
2017-02-03T13:41:07.022Z,83.3
2017-02-03T13:42:17.621Z,83.97
2017-02-03T13:43:27.523Z,83.97
2017-02-03T13:44:37.394Z,83.68
2017-02-03T13:45:47.644Z,83.59
2017-02-03T13:46:57.900Z,83.87
2017-02-03T13:48:08.092Z,83.78
2017-02-03T13:49:17.951Z,83.72
2017-02-03T13:50:27.792Z,83.82
2017-02-03T13:51:37.769Z,83.91
2017-02-03T13:52:48.103Z,83.72
2017-02-03T13:53:58.660Z,83.68
2017-02-03T13:55:08.510Z,83.44
2017-02-03T13:56:18.790Z,83.91
2017-02-03T13:57:28.842Z,83.72
2017-02-03T13:58:39.250Z,84.1
2017-02-03T13:59:49.405Z,83.82
2017-02-03T14:00:59.663Z,84.01
2017-02-03T14:02:09.956Z,83.78
2017-02-03T14:03:20.229Z,83.91
2017-02-03T14:04:30.142Z,84.29
2017-02-03T14:05:40.324Z,84.16
2017-02-03T14:06:50.590Z,83.91
2017-02-03T14:08:00.438Z,84.34
2017-02-03T14:09:10.314Z,84.1
2017-02-03T14:10:20.153Z,84.16
2017-02-03T14:11:29.917Z,83.91
2017-02-03T14:12:39.801Z,83.91
2017-02-03T14:13:49.677Z,84.1
2017-02-03T14:14:59.953Z,84.25
2017-02-03T14:16:10.333Z,84.01
2017-02-03T14:17:20.924Z,84.2
2017-02-03T14:18:30.762Z,84.16
2017-02-03T14:19:40.623Z,83.97
2017-02-03T14:20:50.920Z,84.63
2017-02-03T14:22:00.804Z,84.34
2017-02-03T14:23:10.955Z,84.44
2017-02-03T14:24:21.219Z,84.63
2017-02-03T14:25:30.680Z,84.44
2017-02-03T14:26:40.943Z,84.34
2017-02-03T14:27:50.849Z,84.44
2017-02-03T14:29:01.011Z,84.44
2017-02-03T14:30:10.856Z,84.72
2017-02-03T14:31:20.807Z,84.63
2017-02-03T14:32:31.061Z,84.63
2017-02-03T14:33:40.935Z,84.63
2017-02-03T14:34:51.489Z,84.53
2017-02-03T14:36:01.852Z,85.2
2017-02-03T14:37:12.132Z,85.2
2017-02-03T14:38:21.577Z,84.91
2017-02-03T14:39:31.468Z,85.01
2017-02-03T14:40:42.009Z,84.82
2017-02-03T14:41:51.462Z,84.63
